createdAt,value
2019-04-07T00:00:22.499Z,7.70
2019-04-07T00:02:50.065Z,7.60
2019-04-07T00:05:17.632Z,7.60
2019-04-07T00:07:45.202Z,7.60
2019-04-07T00:10:13.432Z,7.60
2019-04-07T00:12:41.255Z,7.70
2019-04-07T00:15:09.502Z,7.90
2019-04-07T00:17:37.485Z,7.90
2019-04-07T00:20:04.691Z,7.90
2019-04-07T00:22:32.389Z,7.70
2019-04-07T00:24:59.862Z,7.70
2019-04-07T00:27:27.430Z,7.80
2019-04-07T00:29:56.358Z,7.80
2019-04-07T00:32:23.521Z,7.70
2019-04-07T00:34:51.080Z,7.70
2019-04-07T00:37:18.634Z,7.60
2019-04-07T00:39:46.654Z,7.70
2019-04-07T00:42:15.492Z,7.70
2019-04-07T00:44:43.296Z,7.70
2019-04-07T00:47:10.688Z,7.80
2019-04-07T00:49:38.286Z,7.70
2019-04-07T00:52:06.163Z,7.60
2019-04-07T00:54:35.916Z,7.50
2019-04-07T00:57:03.263Z,7.40
2019-04-07T00:59:30.888Z,7.30
2019-04-07T01:01:58.426Z,7.30
2019-04-07T01:04:28.489Z,7.30
2019-04-07T01:06:57.529Z,7.40
2019-04-07T01:09:25.042Z,7.30
2019-04-07T01:11:52.713Z,7.10
2019-04-07T01:14:20.368Z,7.20
2019-04-07T01:16:48.215Z,7.20
2019-04-07T01:19:15.534Z,7.20
2019-04-07T01:21:43.577Z,7.10
2019-04-07T01:24:10.700Z,7.00
2019-04-07T01:26:38.258Z,6.90
2019-04-07T01:29:05.815Z,6.80
2019-04-07T01:31:33.952Z,6.80
2019-04-07T01:34:00.990Z,6.70
2019-04-07T01:36:29.335Z,6.60
2019-04-07T01:38:59.982Z,6.60
2019-04-07T01:44:37.535Z,6.50
2019-04-07T01:47:10.015Z,6.60
2019-04-07T01:49:38.574Z,6.60
2019-04-07T01:52:21.183Z,6.60
2019-04-07T01:54:54.801Z,6.50
2019-04-07T01:57:36.634Z,6.50
2019-04-07T02:00:11.143Z,6.40
2019-04-07T02:02:41.325Z,6.40
2019-04-07T02:05:11.934Z,6.40
2019-04-07T02:07:43.597Z,6.30
2019-04-07T02:10:13.692Z,6.40
2019-04-07T02:12:44.591Z,6.40
2019-04-07T02:15:13.892Z,6.50
2019-04-07T02:17:59.327Z,6.40
2019-04-07T02:20:38.734Z,6.40
2019-04-07T02:23:07.644Z,6.50
2019-04-07T02:25:37.320Z,6.50
2019-04-07T02:28:06.407Z,6.50
2019-04-07T02:30:49.190Z,6.60
2019-04-07T02:33:31.640Z,6.60
2019-04-07T02:36:22.824Z,6.70
2019-04-07T02:38:44.098Z,6.60
2019-04-07T02:41:13.643Z,6.70
2019-04-07T02:43:41.225Z,6.70
2019-04-07T02:46:15.777Z,6.90
2019-04-07T02:48:48.905Z,7.00
2019-04-07T02:51:17.928Z,6.80
2019-04-07T02:56:45.034Z,6.80
2019-04-07T02:59:16.180Z,6.80
2019-04-07T03:01:49.707Z,6.80
2019-04-07T03:04:23.106Z,6.80
2019-04-07T03:07:08.430Z,6.80
2019-04-07T03:09:36.541Z,6.80
2019-04-07T03:12:09.063Z,6.80
2019-04-07T03:14:43.055Z,6.70
2019-04-07T03:17:11.778Z,6.70
2019-04-07T03:19:56.203Z,6.70
2019-04-07T03:22:36.739Z,6.70
2019-04-07T03:25:11.672Z,6.80
2019-04-07T03:27:52.758Z,6.80
2019-04-07T03:30:22.415Z,6.80
2019-04-07T03:32:54.392Z,6.80
2019-04-07T03:35:32.823Z,6.70
2019-04-07T03:38:02.819Z,6.70
2019-04-07T03:40:44.110Z,6.90
2019-04-07T03:43:13.431Z,7.10
2019-04-07T03:45:55.959Z,7.10
2019-04-07T03:48:33.479Z,7.20
2019-04-07T03:51:08.943Z,7.30
2019-04-07T03:53:35.855Z,7.30
2019-04-07T03:56:04.062Z,7.30
2019-04-07T03:58:37.579Z,7.30
2019-04-07T04:04:05.635Z,7.50
2019-04-07T04:06:38.949Z,7.50
2019-04-07T04:09:17.419Z,7.40
2019-04-07T04:14:41.938Z,7.50
2019-04-07T04:17:09.605Z,7.40
2019-04-07T04:19:37.869Z,7.50
2019-04-07T04:22:05.934Z,7.50
2019-04-07T04:24:35.096Z,7.50
2019-04-07T04:27:02.681Z,7.50
2019-04-07T04:29:30.238Z,7.60
2019-04-07T04:31:57.808Z,7.60
2019-04-07T04:34:25.368Z,7.70
2019-04-07T04:36:53.085Z,7.70
2019-04-07T04:39:21.212Z,7.70
2019-04-07T04:41:49.019Z,7.70
2019-04-07T04:44:16.500Z,7.70
2019-04-07T04:46:43.369Z,7.70
2019-04-07T04:49:11.955Z,7.70
2019-04-07T04:51:40.947Z,7.70
2019-04-07T04:54:07.283Z,7.70
2019-04-07T04:56:36.152Z,7.70
2019-04-07T04:59:04.036Z,7.70
2019-04-07T05:01:31.046Z,7.70
2019-04-07T05:03:58.498Z,7.80
2019-04-07T05:06:27.977Z,7.70
2019-04-07T05:08:55.552Z,7.70
2019-04-07T05:11:23.844Z,7.70
2019-04-07T05:13:51.489Z,7.70
2019-04-07T05:16:19.721Z,7.70
2019-04-07T05:18:46.755Z,7.80
2019-04-07T05:21:14.985Z,7.80
2019-04-07T05:23:41.926Z,7.80
2019-04-07T05:26:11.004Z,7.90
2019-04-07T05:28:40.473Z,7.90
2019-04-07T05:31:07.595Z,7.90
2019-04-07T05:33:35.540Z,7.90
2019-04-07T05:36:04.852Z,7.90
2019-04-07T05:38:32.351Z,8.10
2019-04-07T05:41:00.312Z,8.20
2019-04-07T05:43:27.521Z,8.20
2019-04-07T05:45:55.475Z,8.20
2019-04-07T05:48:23.809Z,8.20
2019-04-07T05:50:51.918Z,8.20
2019-04-07T05:53:19.509Z,8.20
2019-04-07T05:55:47.554Z,8.20
2019-04-07T05:58:16.607Z,8.20
2019-04-07T06:00:47.024Z,8.20
2019-04-07T06:03:12.175Z,8.20
2019-04-07T06:05:39.988Z,8.20
2019-04-07T06:08:22.450Z,8.30
2019-04-07T06:10:34.898Z,8.30
2019-04-07T06:13:02.207Z,8.30
2019-04-07T06:15:30.287Z,8.30
2019-04-07T06:18:01.380Z,8.30
2019-04-07T06:20:26.704Z,8.30
2019-04-07T06:22:54.653Z,8.30
2019-04-07T06:25:22.640Z,8.30
2019-04-07T06:27:50.206Z,8.30
2019-04-07T06:30:17.767Z,8.20
2019-04-07T06:32:46.224Z,8.30
2019-04-07T06:35:13.964Z,8.40
2019-04-07T06:37:40.702Z,8.40
2019-04-07T06:40:08.970Z,8.30
2019-04-07T06:42:36.473Z,8.30
2019-04-07T06:45:05.358Z,8.20
2019-04-07T06:47:50.794Z,8.40
2019-04-07T06:50:23.340Z,8.40
2019-04-07T06:53:01.324Z,8.30
2019-04-07T06:55:35.231Z,8.10
2019-04-07T06:58:08.376Z,8.10
2019-04-07T07:00:35.263Z,8.20
2019-04-07T07:03:04.422Z,8.30
2019-04-07T07:05:37.322Z,8.30
2019-04-07T07:08:08.425Z,8.20
2019-04-07T07:10:42.682Z,8.20
2019-04-07T07:13:30.637Z,8.20
2019-04-07T07:16:00.466Z,8.20
2019-04-07T07:18:36.422Z,8.20
2019-04-07T07:21:19.128Z,8.30
2019-04-07T07:23:49.061Z,8.30
2019-04-07T07:26:15.012Z,8.40
2019-04-07T07:28:44.996Z,8.50
2019-04-07T07:31:11.107Z,8.50
2019-04-07T07:33:41.773Z,8.50
2019-04-07T07:36:07.067Z,8.50
2019-04-07T07:38:34.650Z,8.50
2019-04-07T07:41:03.634Z,8.40
2019-04-07T07:43:30.263Z,8.40
2019-04-07T07:45:59.043Z,8.50
2019-04-07T07:48:27.335Z,8.60
2019-04-07T07:50:53.789Z,8.60
2019-04-07T07:53:23.708Z,8.60
2019-04-07T07:55:49.651Z,8.60
2019-04-07T07:58:16.522Z,8.70
2019-04-07T08:00:44.841Z,8.70
2019-04-07T08:03:12.099Z,8.80
2019-04-07T08:05:39.291Z,8.80
2019-04-07T08:08:06.864Z,8.90
2019-04-07T08:10:35.027Z,8.80
2019-04-07T08:13:05.114Z,8.90
2019-04-07T08:15:32.262Z,9.00
2019-04-07T08:17:57.375Z,8.90
2019-04-07T08:20:24.877Z,8.90
2019-04-07T08:22:52.435Z,9.00
2019-04-07T08:25:22.303Z,9.10
2019-04-07T08:27:47.703Z,9.20
2019-04-07T08:30:15.243Z,9.30
2019-04-07T08:32:43.200Z,9.40
2019-04-07T08:35:10.421Z,9.50
2019-04-07T08:37:38.352Z,9.40
2019-04-07T08:40:07.701Z,9.40
2019-04-07T08:42:33.457Z,9.50
2019-04-07T08:45:03.303Z,9.80
2019-04-07T08:47:30.246Z,10.00
2019-04-07T08:49:57.958Z,10.00
2019-04-07T08:52:26.023Z,10.20
2019-04-07T08:54:53.517Z,10.30
2019-04-07T08:57:22.606Z,10.20
2019-04-07T08:59:50.666Z,10.10
2019-04-07T09:02:19.220Z,10.00
2019-04-07T09:04:49.734Z,10.00
2019-04-07T09:07:14.076Z,9.80
2019-04-07T09:09:46.637Z,9.90
2019-04-07T09:12:09.279Z,9.90
2019-04-07T09:14:39.847Z,9.90
2019-04-07T09:17:11.705Z,9.80
2019-04-07T09:19:54.804Z,9.70
2019-04-07T09:25:27.186Z,9.60
2019-04-07T09:27:54.087Z,9.40
2019-04-07T09:30:24.949Z,9.60
2019-04-07T09:33:07.080Z,9.70
2019-04-07T09:35:38.939Z,9.80
2019-04-07T09:38:27.344Z,9.90
2019-04-07T09:44:05.225Z,10.00
2019-04-07T09:46:33.261Z,10.00
2019-04-07T09:49:01.322Z,10.00
2019-04-07T09:54:34.983Z,10.00
2019-04-07T09:57:22.309Z,9.80
2019-04-07T10:00:07.131Z,9.80
2019-04-07T10:02:48.026Z,9.90
2019-04-07T10:08:19.525Z,10.10
2019-04-07T10:10:50.943Z,9.90
2019-04-07T10:13:19.425Z,9.80
2019-04-07T10:15:54.261Z,9.90
2019-04-07T10:18:33.501Z,9.90
2019-04-07T10:21:05.334Z,9.90
2019-04-07T10:23:52.490Z,9.80
2019-04-07T10:26:21.994Z,9.70
2019-04-07T10:28:51.690Z,9.70
2019-04-07T10:34:19.012Z,9.70
2019-04-07T10:36:51.148Z,10.00
2019-04-07T10:39:20.900Z,10.20
2019-04-07T10:41:55.265Z,10.30
2019-04-07T10:47:18.391Z,10.20
2019-04-07T10:49:57.904Z,10.10
2019-04-07T10:52:21.401Z,10.10
2019-04-07T10:54:58.379Z,10.10
2019-04-07T10:57:46.975Z,10.10
2019-04-07T11:00:26.795Z,10.20
2019-04-07T11:05:50.432Z,10.40
2019-04-07T11:08:34.339Z,10.30
2019-04-07T11:11:07.877Z,10.30
2019-04-07T11:13:37.014Z,10.30
2019-04-07T11:16:10.987Z,10.60
2019-04-07T11:18:40.265Z,10.60
2019-04-07T11:21:09.526Z,10.60
2019-04-07T11:23:45.248Z,11.10
2019-04-07T11:26:16.773Z,11.10
2019-04-07T11:28:44.592Z,11.40
2019-04-07T11:31:16.830Z,11.30
2019-04-07T11:33:44.981Z,11.00
2019-04-07T11:36:12.804Z,11.00
2019-04-07T11:38:56.153Z,10.90
2019-04-07T11:41:27.714Z,11.00
2019-04-07T11:44:09.626Z,10.90
2019-04-07T11:46:38.983Z,10.80
2019-04-07T11:49:21.480Z,10.80
2019-04-07T11:51:52.339Z,11.00
2019-04-07T11:54:35.699Z,11.00
2019-04-07T11:57:04.439Z,10.90
2019-04-07T11:59:34.919Z,11.20
2019-04-07T12:02:07.455Z,11.50
2019-04-07T12:04:35.681Z,11.70
2019-04-07T12:07:08.934Z,11.60
2019-04-07T12:09:51.066Z,11.40
2019-04-07T12:12:24.610Z,11.30
2019-04-07T12:14:54.578Z,10.80
2019-04-07T12:17:25.903Z,10.70
2019-04-07T12:19:58.051Z,10.50
2019-04-07T12:22:28.308Z,10.70
2019-04-07T12:24:59.243Z,10.70
2019-04-07T12:27:24.097Z,10.70
2019-04-07T12:32:54.095Z,10.60
2019-04-07T12:38:23.104Z,10.60
2019-04-07T12:40:56.392Z,10.50
2019-04-07T12:43:26.116Z,10.40
2019-04-07T12:48:56.639Z,10.60
2019-04-07T12:51:28.999Z,11.00
2019-04-07T12:54:07.364Z,11.00
2019-04-07T12:56:34.309Z,11.20
2019-04-07T12:59:17.915Z,11.30
2019-04-07T13:01:49.224Z,11.20
2019-04-07T13:04:34.310Z,11.20
2019-04-07T13:07:05.668Z,11.20
2019-04-07T13:09:37.906Z,11.20
2019-04-07T13:12:05.632Z,11.20
2019-04-07T13:14:40.967Z,11.40
2019-04-07T13:17:31.428Z,11.40
2019-04-07T13:20:00.880Z,11.30
2019-04-07T13:22:32.528Z,11.60
2019-04-07T13:25:18.690Z,11.50
2019-04-07T13:27:44.007Z,11.20
2019-04-07T13:30:17.069Z,11.30
2019-04-07T13:32:55.086Z,11.30
2019-04-07T13:35:38.600Z,11.30
2019-04-07T13:38:09.295Z,11.20
2019-04-07T13:40:40.765Z,11.10
2019-04-07T13:43:13.335Z,11.40
2019-04-07T13:45:46.775Z,11.60
2019-04-07T13:48:30.061Z,11.40
2019-04-07T13:50:57.689Z,11.40
2019-04-07T13:53:29.500Z,11.40
2019-04-07T13:56:10.008Z,11.30
2019-04-07T14:01:38.638Z,11.30
2019-04-07T14:04:10.504Z,11.30
2019-04-07T14:06:37.331Z,11.30
2019-04-07T14:09:07.236Z,11.40
2019-04-07T14:11:58.302Z,11.30
2019-04-07T14:14:19.000Z,11.30
2019-04-07T14:16:48.694Z,11.20
2019-04-07T14:19:32.091Z,11.20
2019-04-07T14:22:06.536Z,11.10
2019-04-07T14:24:52.655Z,11.00
2019-04-07T14:27:37.321Z,11.00
2019-04-07T14:30:20.302Z,11.00
2019-04-07T14:32:49.833Z,11.10
2019-04-07T14:35:20.615Z,11.10
2019-04-07T14:37:49.493Z,11.20
2019-04-07T14:40:22.441Z,11.10
2019-04-07T14:42:52.346Z,11.10
2019-04-07T14:45:27.272Z,11.20
2019-04-07T14:48:09.829Z,11.30
2019-04-07T14:50:53.831Z,11.10
2019-04-07T14:53:22.489Z,11.10
2019-04-07T14:55:56.020Z,11.30
2019-04-07T14:58:29.147Z,11.40
2019-04-07T15:01:02.547Z,11.40
2019-04-07T15:03:27.431Z,11.30
2019-04-07T15:05:56.363Z,11.10
2019-04-07T15:08:30.317Z,11.00
2019-04-07T15:10:58.300Z,11.00
2019-04-07T15:13:28.094Z,11.10
2019-04-07T15:15:53.167Z,11.00
2019-04-07T15:18:21.458Z,11.00
2019-04-07T15:20:49.404Z,11.00
2019-04-07T15:23:17.566Z,11.00
2019-04-07T15:25:46.997Z,11.00
2019-04-07T15:28:12.318Z,10.90
2019-04-07T15:30:40.595Z,11.00
2019-04-07T15:33:11.821Z,11.10
2019-04-07T15:35:36.931Z,10.90
2019-04-07T15:38:05.421Z,10.90
2019-04-07T15:40:36.258Z,11.00
2019-04-07T15:43:04.707Z,10.90
2019-04-07T15:45:30.838Z,10.80
2019-04-07T15:48:00.661Z,10.90
2019-04-07T15:50:30.131Z,10.90
2019-04-07T15:52:55.276Z,11.00
2019-04-07T15:55:26.374Z,11.10
2019-04-07T15:57:53.442Z,11.00
2019-04-07T16:00:18.460Z,11.10
2019-04-07T16:02:46.028Z,11.00
2019-04-07T16:05:13.649Z,10.90
2019-04-07T16:07:40.701Z,10.80
2019-04-07T16:10:08.117Z,10.80
2019-04-07T16:12:44.214Z,10.80
2019-04-07T16:15:04.089Z,10.90
2019-04-07T16:17:33.906Z,10.90
2019-04-07T16:19:58.948Z,11.00
2019-04-07T16:22:28.918Z,11.10
2019-04-07T16:24:57.288Z,11.20
2019-04-07T16:27:26.024Z,11.20
2019-04-07T16:29:52.949Z,11.10
2019-04-07T16:32:20.460Z,11.20
2019-04-07T16:34:48.057Z,11.00
2019-04-07T16:37:15.898Z,11.00
2019-04-07T16:39:43.247Z,11.00
2019-04-07T16:42:10.864Z,11.10
2019-04-07T16:44:42.611Z,11.10
2019-04-07T16:47:17.219Z,11.10
2019-04-07T16:49:35.864Z,10.90
2019-04-07T16:52:03.588Z,10.90
2019-04-07T16:54:31.397Z,10.90
2019-04-07T16:57:00.399Z,10.60
2019-04-07T16:59:27.956Z,10.60
2019-04-07T17:01:55.521Z,10.60
2019-04-07T17:04:23.091Z,10.60
2019-04-07T17:07:01.712Z,10.80
2019-04-07T17:09:18.269Z,10.70
2019-04-07T17:11:46.102Z,10.70
2019-04-07T17:14:16.234Z,10.80
2019-04-07T17:16:45.514Z,10.70
2019-04-07T17:19:11.514Z,10.70
2019-04-07T17:21:41.126Z,10.70
2019-04-07T17:24:08.622Z,10.70
2019-04-07T17:26:38.259Z,10.70
2019-04-07T17:29:04.427Z,10.80
2019-04-07T17:31:32.672Z,10.80
2019-04-07T17:34:00.492Z,10.80
2019-04-07T17:36:28.220Z,10.70
2019-04-07T17:38:58.901Z,10.50
2019-04-07T17:41:26.462Z,10.50
2019-04-07T17:44:00.669Z,10.50
2019-04-07T17:46:28.598Z,10.50
2019-04-07T17:48:57.653Z,10.50
2019-04-07T17:51:23.978Z,10.60
2019-04-07T17:53:57.171Z,10.50
2019-04-07T17:56:29.799Z,10.30
2019-04-07T17:58:58.569Z,10.20
2019-04-07T18:04:23.350Z,10.00
2019-04-07T18:09:53.307Z,9.80
2019-04-07T18:12:27.074Z,9.80
2019-04-07T18:15:03.607Z,9.70
2019-04-07T18:17:30.047Z,9.80
2019-04-07T18:20:07.173Z,9.80
2019-04-07T18:22:31.511Z,9.90
2019-04-07T18:25:16.151Z,9.90
2019-04-07T18:27:59.940Z,9.90
2019-04-07T18:30:34.483Z,9.90
2019-04-07T18:33:00.938Z,9.90
2019-04-07T18:35:39.268Z,10.10
2019-04-07T18:38:11.422Z,10.10
2019-04-07T18:40:39.667Z,10.10
2019-04-07T18:43:08.151Z,9.80
2019-04-07T18:45:36.362Z,9.80
2019-04-07T18:48:27.245Z,9.80
2019-04-07T18:50:54.653Z,9.60
2019-04-07T18:53:27.694Z,9.60
2019-04-07T18:58:52.536Z,9.60
2019-04-07T19:01:18.583Z,9.50
2019-04-07T19:03:53.292Z,9.50
2019-04-07T19:09:32.258Z,9.40
2019-04-07T19:12:05.818Z,9.30
2019-04-07T19:14:52.102Z,9.30
2019-04-07T19:17:21.694Z,9.20
2019-04-07T19:19:59.452Z,9.20
2019-04-07T19:22:26.735Z,9.30
2019-04-07T19:24:59.051Z,9.40
2019-04-07T19:30:46.893Z,9.40
2019-04-07T19:33:17.865Z,9.40
2019-04-07T19:38:52.196Z,9.40
2019-04-07T19:41:20.435Z,9.30
2019-04-07T19:43:48.060Z,9.20
2019-04-07T19:46:30.639Z,9.30
2019-04-07T19:49:15.054Z,9.30
2019-04-07T19:51:41.719Z,9.20
2019-04-07T19:54:17.693Z,9.30
2019-04-07T19:56:46.435Z,9.30
2019-04-07T19:59:19.495Z,9.20
2019-04-07T20:01:46.258Z,9.30
2019-04-07T20:04:23.736Z,9.10
2019-04-07T20:07:00.768Z,9.20
2019-04-07T20:09:39.483Z,9.20
2019-04-07T20:15:09.126Z,9.20
2019-04-07T20:17:54.786Z,9.30
2019-04-07T20:20:19.506Z,9.20
2019-04-07T20:22:56.396Z,9.20
2019-04-07T20:25:24.671Z,9.20
2019-04-07T20:27:59.049Z,9.20
2019-04-07T20:33:25.012Z,9.20
2019-04-07T20:36:17.727Z,9.20
2019-04-07T20:38:44.285Z,9.30
2019-04-07T20:41:17.155Z,9.30
2019-04-07T20:43:46.652Z,9.20
2019-04-07T20:46:21.540Z,9.10
2019-04-07T20:48:56.570Z,9.00
2019-04-07T20:51:25.393Z,9.00
2019-04-07T20:53:53.694Z,9.10
2019-04-07T20:56:27.827Z,9.20
2019-04-07T21:02:03.439Z,9.20
2019-04-07T21:04:39.577Z,9.20
2019-04-07T21:07:21.237Z,9.20
2019-04-07T21:10:09.488Z,9.20
2019-04-07T21:12:34.199Z,9.20
2019-04-07T21:15:21.022Z,9.20
2019-04-07T21:17:41.590Z,9.20
2019-04-07T21:20:24.030Z,9.20
2019-04-07T21:23:09.383Z,9.20
2019-04-07T21:25:39.520Z,9.20
2019-04-07T21:28:12.575Z,9.20
2019-04-07T21:30:43.017Z,9.20
2019-04-07T21:33:15.249Z,9.20
2019-04-07T21:38:39.208Z,9.20
2019-04-07T21:44:09.144Z,9.10
2019-04-07T21:49:38.256Z,9.00
2019-04-07T21:52:07.557Z,8.90
2019-04-07T21:54:39.618Z,8.90
2019-04-07T21:57:14.866Z,8.90
2019-04-07T21:59:47.862Z,8.90
2019-04-07T22:02:18.334Z,8.80
2019-04-07T22:04:50.609Z,8.80
2019-04-07T22:10:09.505Z,9.00
2019-04-07T22:12:37.848Z,9.00
2019-04-07T22:15:04.667Z,9.10
2019-04-07T22:17:34.428Z,9.00
2019-04-07T22:20:01.480Z,9.00
2019-04-07T22:22:31.094Z,9.00
2019-04-07T22:25:01.210Z,9.10
2019-04-07T22:27:28.673Z,9.10
2019-04-07T22:29:56.570Z,9.20
2019-04-07T22:32:24.345Z,9.10
2019-04-07T22:34:50.906Z,9.10
2019-04-07T22:37:22.176Z,9.20
2019-04-07T22:39:49.148Z,9.20
2019-04-07T22:42:17.157Z,9.00
2019-04-07T22:44:43.955Z,9.00
2019-04-07T22:47:13.143Z,8.80
2019-04-07T22:49:39.148Z,8.80
2019-04-07T22:52:07.567Z,8.70
2019-04-07T22:54:34.862Z,8.70
2019-04-07T22:57:02.778Z,8.70
2019-04-07T22:59:30.312Z,8.70
2019-04-07T23:01:59.778Z,8.60
2019-04-07T23:04:26.460Z,8.60
2019-04-07T23:06:54.019Z,8.60
2019-04-07T23:09:21.849Z,8.70
2019-04-07T23:11:49.188Z,8.70
2019-04-07T23:14:17.934Z,8.70
2019-04-07T23:16:46.478Z,8.70
2019-04-07T23:19:14.545Z,8.70
2019-04-07T23:21:42.100Z,8.70
2019-04-07T23:24:09.728Z,8.70
2019-04-07T23:26:37.294Z,8.80
2019-04-07T23:29:05.754Z,8.90
2019-04-07T23:31:32.463Z,8.80
2019-04-07T23:34:02.806Z,8.90
2019-04-07T23:36:30.555Z,8.90
2019-04-07T23:38:58.140Z,8.90
2019-04-07T23:41:25.686Z,8.90
2019-04-07T23:43:54.008Z,8.90
2019-04-07T23:46:25.720Z,8.90
2019-04-07T23:48:51.817Z,8.90
2019-04-07T23:51:20.676Z,8.90
2019-04-07T23:54:00.920Z,8.90
2019-04-07T23:56:29.394Z,8.90
2019-04-07T23:58:56.269Z,8.90
